createdAt,value
2023-02-11T00:01:35.543Z,102135.59
2023-02-11T00:04:05.489Z,102130.94
2023-02-11T00:06:35.548Z,102124.06
2023-02-11T00:09:04.054Z,102123.56
2023-02-11T00:11:31.736Z,102123.34
2023-02-11T00:14:03.954Z,102120.66
2023-02-11T00:16:32.422Z,102119.06
2023-02-11T00:19:02.111Z,102119.59
2023-02-11T00:21:29.618Z,102121.50
2023-02-11T00:23:59.612Z,102106.78
2023-02-11T00:26:32.499Z,102107.00
2023-02-11T00:29:04.331Z,102095.50
2023-02-11T00:31:34.545Z,102105.53
2023-02-11T00:34:02.023Z,102105.81
2023-02-11T00:36:30.330Z,102113.09
2023-02-11T00:38:59.985Z,102104.84
2023-02-11T00:41:28.553Z,102112.97
2023-02-11T00:43:55.960Z,102104.78
2023-02-11T00:46:23.823Z,102100.84
2023-02-11T00:48:53.251Z,102107.47
2023-02-11T00:51:21.941Z,102107.56
2023-02-11T00:53:49.168Z,102109.19
2023-02-11T00:56:16.396Z,102104.69
2023-02-11T00:58:43.713Z,102101.72
2023-02-11T01:01:12.486Z,102099.31
2023-02-11T01:03:40.851Z,102102.16
2023-02-11T01:06:09.901Z,102097.97
2023-02-11T01:08:39.554Z,102097.75
2023-02-11T01:11:16.968Z,102084.72
2023-02-11T01:13:47.251Z,102090.28
2023-02-11T01:16:17.124Z,102087.63
2023-02-11T01:18:46.716Z,102091.06
2023-02-11T01:21:14.748Z,102097.09
2023-02-11T01:23:43.578Z,102097.44
2023-02-11T01:26:12.495Z,102091.34
2023-02-11T01:28:40.130Z,102094.63
2023-02-11T01:31:07.517Z,102102.56
2023-02-11T01:33:34.951Z,102083.78
2023-02-11T01:36:05.344Z,102079.69
2023-02-11T01:38:33.813Z,102075.84
2023-02-11T01:41:06.409Z,102079.81
2023-02-11T01:43:48.216Z,102072.69
2023-02-11T01:46:38.183Z,102076.63
2023-02-11T01:49:15.295Z,102075.22
2023-02-11T01:52:09.966Z,102073.34
2023-02-11T01:55:05.713Z,102064.69
2023-02-11T01:57:36.308Z,102066.38
2023-02-11T02:00:20.823Z,102067.78
2023-02-11T02:03:22.578Z,102067.56
2023-02-11T02:06:13.262Z,102057.97
2023-02-11T02:09:02.945Z,102060.06
2023-02-11T02:11:31.744Z,102054.94
2023-02-11T02:13:59.380Z,102056.91
2023-02-11T02:16:36.215Z,102044.69
2023-02-11T02:19:50.330Z,102047.88
2023-02-11T02:22:44.948Z,102048.06
2023-02-11T02:25:55.509Z,102052.19
2023-02-11T02:29:13.104Z,102042.81
2023-02-11T02:32:39.154Z,102036.66
2023-02-11T02:35:38.239Z,102036.16
2023-02-11T02:38:39.201Z,102034.16
2023-02-11T02:41:16.462Z,102039.44
2023-02-11T02:43:50.349Z,102040.88
2023-02-11T02:46:23.549Z,102039.59
2023-02-11T02:48:53.578Z,102033.44
2023-02-11T02:51:20.589Z,102032.88
2023-02-11T02:54:18.327Z,102026.84
2023-02-11T02:57:31.362Z,102029.47
2023-02-11T03:00:32.995Z,102025.94
2023-02-11T03:03:38.137Z,102026.06
2023-02-11T03:06:34.386Z,102026.78
2023-02-11T03:09:14.492Z,102020.81
2023-02-11T03:11:41.888Z,102022.72
2023-02-11T03:14:16.021Z,102024.66
2023-02-11T03:16:45.893Z,102015.31
2023-02-11T03:19:21.775Z,102015.81
2023-02-11T03:21:52.093Z,102018.81
2023-02-11T03:24:32.208Z,102018.50
2023-02-11T03:27:31.475Z,102011.56
2023-02-11T03:30:15.074Z,102020.38
2023-02-11T03:33:12.833Z,102007.84
2023-02-11T03:35:56.685Z,102001.84
2023-02-11T03:38:32.457Z,101999.31
2023-02-11T03:41:03.544Z,101995.66
2023-02-11T03:43:47.888Z,101995.91
2023-02-11T03:46:20.254Z,101995.34
2023-02-11T03:48:59.784Z,101990.25
2023-02-11T03:51:29.542Z,101990.66
2023-02-11T03:54:01.748Z,101982.56
2023-02-11T03:56:37.310Z,101987.13
2023-02-11T03:59:04.852Z,101978.72
2023-02-11T04:01:32.136Z,101984.50
2023-02-11T04:03:59.425Z,101985.41
2023-02-11T04:06:26.548Z,101979.16
2023-02-11T04:08:53.810Z,101978.59
2023-02-11T04:11:21.086Z,101978.94
2023-02-11T04:13:48.216Z,101978.16
2023-02-11T04:16:15.537Z,101978.28
2023-02-11T04:18:42.748Z,101977.97
2023-02-11T04:21:10.025Z,101977.97
2023-02-11T04:23:37.226Z,101977.09
2023-02-11T04:26:04.691Z,101972.88
2023-02-11T04:28:32.042Z,101978.19
2023-02-11T04:30:59.238Z,101979.97
2023-02-11T04:33:26.747Z,101981.22
2023-02-11T04:35:53.909Z,101972.84
2023-02-11T04:38:23.865Z,101967.63
2023-02-11T04:40:51.452Z,101969.75
2023-02-11T04:43:18.865Z,101962.19
2023-02-11T04:45:46.114Z,101975.28
2023-02-11T04:48:13.262Z,101966.47
2023-02-11T04:50:41.321Z,101968.41
2023-02-11T04:53:08.555Z,101957.28
2023-02-11T04:55:35.777Z,101957.28
2023-02-11T04:58:02.961Z,101962.22
2023-02-11T05:00:30.165Z,101965.34
2023-02-11T05:02:57.386Z,101962.38
2023-02-11T05:05:24.668Z,101956.13
2023-02-11T05:07:51.868Z,101954.53
2023-02-11T05:10:19.284Z,101955.13
2023-02-11T05:12:49.560Z,101953.22
2023-02-11T05:15:16.941Z,101958.25
2023-02-11T05:17:44.193Z,101961.59
2023-02-11T05:20:11.654Z,101970.28
2023-02-11T05:22:39.063Z,101971.97
2023-02-11T05:25:06.863Z,101972.09
2023-02-11T05:27:36.638Z,101973.59
2023-02-11T05:30:05.823Z,101965.16
2023-02-11T05:32:33.656Z,101967.50
2023-02-11T05:35:00.814Z,101964.63
2023-02-11T05:37:28.039Z,101965.16
2023-02-11T05:39:55.174Z,101965.25
2023-02-11T05:42:22.428Z,101968.97
2023-02-11T05:44:50.700Z,101965.31
2023-02-11T05:47:18.063Z,101973.66
2023-02-11T05:49:45.301Z,101960.72
2023-02-11T05:52:12.447Z,101964.38
2023-02-11T05:54:39.669Z,101955.72
2023-02-11T05:57:06.968Z,101961.09
2023-02-11T05:59:34.134Z,101950.16
2023-02-11T06:02:02.060Z,101952.03
2023-02-11T06:04:29.326Z,101930.72
2023-02-11T06:06:56.961Z,101927.78
2023-02-11T06:09:24.130Z,101929.53
2023-02-11T06:11:51.375Z,101933.19
2023-02-11T06:14:18.698Z,101926.25
2023-02-11T06:16:46.058Z,101928.22
2023-02-11T06:19:13.365Z,101934.84
2023-02-11T06:21:44.275Z,101936.38
2023-02-11T06:24:12.920Z,101928.69
2023-02-11T06:26:40.229Z,101931.47
2023-02-11T06:29:12.899Z,101931.44
2023-02-11T06:31:41.080Z,101926.94
2023-02-11T06:34:10.382Z,101916.53
2023-02-11T06:36:40.871Z,101914.84
2023-02-11T06:39:08.285Z,101910.88
2023-02-11T06:41:35.476Z,101904.59
2023-02-11T06:44:02.619Z,101909.19
2023-02-11T06:46:29.867Z,101914.72
2023-02-11T06:48:57.148Z,101922.53
2023-02-11T06:51:24.382Z,101916.31
2023-02-11T06:53:51.567Z,101925.69
2023-02-11T06:56:23.142Z,101921.00
2023-02-11T06:58:55.463Z,101932.84
2023-02-11T07:01:25.041Z,101931.06
2023-02-11T07:03:54.073Z,101935.75
2023-02-11T07:06:26.905Z,101941.03
2023-02-11T07:08:55.984Z,101937.22
2023-02-11T07:11:28.586Z,101944.09
2023-02-11T07:14:02.543Z,101947.16
2023-02-11T07:16:32.772Z,101943.81
2023-02-11T07:19:00.773Z,101936.16
2023-02-11T07:21:28.025Z,101939.72
2023-02-11T07:23:55.391Z,101943.13
2023-02-11T07:26:25.716Z,101949.53
2023-02-11T07:28:53.431Z,101950.72
2023-02-11T07:31:28.950Z,101957.84
2023-02-11T07:34:00.928Z,101957.28
2023-02-11T07:36:30.510Z,101954.97
2023-02-11T07:38:58.391Z,101964.22
2023-02-11T07:41:26.633Z,101963.50
2023-02-11T07:43:54.155Z,101951.06
2023-02-11T07:46:27.606Z,101953.63
2023-02-11T07:48:55.596Z,101950.59
2023-02-11T07:51:28.632Z,101949.72
2023-02-11T07:53:59.267Z,101952.94
2023-02-11T07:56:27.742Z,101946.09
2023-02-11T07:58:56.961Z,101948.84
2023-02-11T08:01:28.318Z,101954.38
2023-02-11T08:04:01.771Z,101952.78
2023-02-11T08:06:33.304Z,101947.66
2023-02-11T08:09:09.523Z,101950.19
2023-02-11T08:11:37.320Z,101940.19
2023-02-11T08:14:04.684Z,101940.09
2023-02-11T08:16:36.706Z,101943.00
2023-02-11T08:19:13.909Z,101950.44
2023-02-11T08:21:42.456Z,101954.72
2023-02-11T08:24:09.878Z,101947.47
2023-02-11T08:26:37.581Z,101948.50
2023-02-11T08:29:17.342Z,101945.97
2023-02-11T08:31:47.716Z,101944.53
2023-02-11T08:34:18.954Z,101945.03
2023-02-11T08:36:48.237Z,101950.00
2023-02-11T08:39:22.309Z,101953.56
2023-02-11T08:41:53.731Z,101960.41
2023-02-11T08:44:23.001Z,101954.72
2023-02-11T08:46:51.506Z,101957.00
2023-02-11T08:49:19.488Z,101959.03
2023-02-11T08:51:47.391Z,101955.00
2023-02-11T08:54:15.365Z,101958.53
2023-02-11T08:56:42.802Z,101953.06
2023-02-11T08:59:15.003Z,101947.75
2023-02-11T09:01:44.146Z,101956.88
2023-02-11T09:04:11.531Z,101953.91
2023-02-11T09:06:39.259Z,101950.25
2023-02-11T09:09:06.652Z,101956.16
2023-02-11T09:11:36.412Z,101953.97
2023-02-11T09:14:04.990Z,101952.13
2023-02-11T09:16:36.400Z,101952.50
2023-02-11T09:19:05.686Z,101946.03
2023-02-11T09:21:33.289Z,101940.44
2023-02-11T09:24:00.558Z,101946.84
2023-02-11T09:26:34.896Z,101937.66
2023-02-11T09:29:04.345Z,101932.78
2023-02-11T09:31:34.107Z,101933.16
2023-02-11T09:34:05.563Z,101926.88
2023-02-11T09:36:38.259Z,101926.72
2023-02-11T09:39:12.741Z,101924.41
2023-02-11T09:41:58.102Z,101937.44
2023-02-11T09:44:37.466Z,101934.75
2023-02-11T09:47:32.948Z,101926.66
2023-02-11T09:50:15.228Z,101931.22
2023-02-11T09:53:04.107Z,101933.00
2023-02-11T09:55:49.823Z,101930.81
2023-02-11T09:58:34.064Z,101935.16
2023-02-11T10:01:41.328Z,101933.28
2023-02-11T10:05:11.427Z,101942.28
2023-02-11T10:07:56.436Z,101945.38
2023-02-11T10:11:04.640Z,101949.00
2023-02-11T10:14:05.060Z,101958.75
2023-02-11T10:16:52.018Z,101956.53
2023-02-11T10:19:54.834Z,101955.06
2023-02-11T10:22:35.344Z,101951.25
2023-02-11T10:25:35.574Z,101949.16
2023-02-11T10:28:18.735Z,101947.84
2023-02-11T10:31:27.097Z,101951.13
2023-02-11T10:34:05.593Z,101940.78
2023-02-11T10:36:43.842Z,101939.41
2023-02-11T10:39:18.201Z,101924.41
2023-02-11T10:41:50.470Z,101923.34
2023-02-11T10:44:34.884Z,101914.22
2023-02-11T10:47:19.229Z,101912.84
2023-02-11T10:49:48.933Z,101908.53
2023-02-11T10:52:26.836Z,101898.41
2023-02-11T10:55:10.379Z,101890.03
2023-02-11T10:57:58.754Z,101879.81
2023-02-11T11:00:39.304Z,101884.53
2023-02-11T11:03:31.583Z,101891.44
2023-02-11T11:06:09.910Z,101886.38
2023-02-11T11:08:51.855Z,101880.81
2023-02-11T11:11:26.678Z,101877.00
2023-02-11T11:13:58.099Z,101886.06
2023-02-11T11:16:36.524Z,101884.16
2023-02-11T11:19:06.732Z,101877.81
2023-02-11T11:21:45.422Z,101867.53
2023-02-11T11:24:29.406Z,101849.22
2023-02-11T11:27:01.623Z,101851.63
2023-02-11T11:29:46.392Z,101860.72
2023-02-11T11:32:32.462Z,101850.53
2023-02-11T11:35:29.598Z,101839.13
2023-02-11T11:38:04.806Z,101835.44
2023-02-11T11:40:36.334Z,101838.06
2023-02-11T11:43:23.069Z,101835.78
2023-02-11T11:45:58.389Z,101842.56
2023-02-11T11:48:47.820Z,101832.41
2023-02-11T11:51:15.116Z,101844.00
2023-02-11T11:54:00.480Z,101842.00
2023-02-11T11:56:34.795Z,101844.66
2023-02-11T11:59:13.714Z,101839.50
2023-02-11T12:02:46.434Z,101827.56
2023-02-11T12:05:37.746Z,101819.88
2023-02-11T12:08:54.724Z,101819.59
2023-02-11T12:12:09.976Z,101815.91
2023-02-11T12:14:55.872Z,101814.28
2023-02-11T12:18:05.902Z,101813.91
2023-02-11T12:21:30.729Z,101802.16
2023-02-11T12:24:29.648Z,101795.50
2023-02-11T12:27:26.738Z,101798.19
2023-02-11T12:30:48.024Z,101799.72
2023-02-11T12:34:12.366Z,101795.25
2023-02-11T12:37:16.084Z,101801.81
2023-02-11T12:40:26.775Z,101805.34
2023-02-11T12:43:24.108Z,101793.25
2023-02-11T12:46:24.341Z,101790.94
2023-02-11T12:49:58.003Z,101785.72
2023-02-11T12:53:10.857Z,101792.69
2023-02-11T12:55:46.692Z,101786.28
2023-02-11T12:58:25.397Z,101776.03
2023-02-11T13:01:12.594Z,101776.31
2023-02-11T13:03:54.862Z,101774.13
2023-02-11T13:06:47.064Z,101770.94
2023-02-11T13:09:27.085Z,101758.00
2023-02-11T13:12:20.782Z,101753.44
2023-02-11T13:14:52.778Z,101746.44
2023-02-11T13:17:43.505Z,101754.75
2023-02-11T13:20:38.380Z,101745.38
2023-02-11T13:23:25.935Z,101744.97
2023-02-11T13:26:03.099Z,101741.16
2023-02-11T13:29:00.538Z,101732.59
2023-02-11T13:31:29.950Z,101731.56
2023-02-11T13:33:57.249Z,101728.69
2023-02-11T13:36:32.986Z,101723.09
2023-02-11T13:39:05.200Z,101727.25
2023-02-11T13:41:52.841Z,101719.06
2023-02-11T13:44:26.514Z,101716.16
2023-02-11T13:47:02.429Z,101721.84
2023-02-11T13:49:32.023Z,101720.75
2023-02-11T13:52:03.434Z,101718.84
2023-02-11T13:54:39.626Z,101709.94
2023-02-11T13:57:27.335Z,101715.94
2023-02-11T14:00:01.716Z,101705.50
2023-02-11T14:02:55.383Z,101699.13
2023-02-11T14:05:50.329Z,101695.56
2023-02-11T14:08:41.456Z,101700.50
2023-02-11T14:11:36.256Z,101690.19
2023-02-11T14:14:23.716Z,101695.81
2023-02-11T14:16:59.863Z,101680.97
2023-02-11T14:19:44.637Z,101678.56
2023-02-11T14:22:31.713Z,101682.75
2023-02-11T14:25:02.510Z,101670.47
2023-02-11T14:28:26.751Z,101676.72
2023-02-11T14:31:13.248Z,101671.66
2023-02-11T14:34:05.756Z,101668.66
2023-02-11T14:37:09.248Z,101671.19
2023-02-11T14:40:15.896Z,101674.34
2023-02-11T14:42:43.568Z,101666.78
2023-02-11T14:45:20.219Z,101661.97
2023-02-11T14:48:20.059Z,101662.09
2023-02-11T14:50:53.673Z,101663.69
2023-02-11T14:53:25.880Z,101660.03
2023-02-11T14:55:55.335Z,101657.72
2023-02-11T14:58:32.648Z,101666.31
2023-02-11T15:01:22.163Z,101670.44
2023-02-11T15:03:50.234Z,101663.22
2023-02-11T15:06:21.733Z,101659.56
2023-02-11T15:09:05.072Z,101661.94
2023-02-11T15:11:43.712Z,101662.72
2023-02-11T15:14:34.922Z,101656.59
2023-02-11T15:17:07.848Z,101652.63
2023-02-11T15:19:48.672Z,101654.94
2023-02-11T15:22:36.850Z,101651.09
2023-02-11T15:25:16.612Z,101641.75
2023-02-11T15:27:50.748Z,101644.31
2023-02-11T15:30:34.083Z,101649.63
2023-02-11T15:33:06.765Z,101645.16
2023-02-11T15:35:41.098Z,101631.59
2023-02-11T15:38:13.042Z,101627.16
2023-02-11T15:40:40.385Z,101632.25
2023-02-11T15:43:10.985Z,101634.38
2023-02-11T15:45:54.215Z,101621.84
2023-02-11T15:48:52.544Z,101613.47
2023-02-11T15:51:36.788Z,101620.19
2023-02-11T15:54:19.782Z,101627.41
2023-02-11T15:56:55.497Z,101611.91
2023-02-11T15:59:46.582Z,101609.94
2023-02-11T16:02:31.902Z,101602.53
2023-02-11T16:05:09.422Z,101618.09
2023-02-11T16:07:50.731Z,101621.38
2023-02-11T16:10:34.439Z,101609.78
2023-02-11T16:13:07.209Z,101615.19
2023-02-11T16:15:34.260Z,101609.72
2023-02-11T16:18:40.283Z,101604.19
2023-02-11T16:21:19.369Z,101610.25
2023-02-11T16:23:55.151Z,101615.56
2023-02-11T16:26:29.063Z,101615.97
2023-02-11T16:29:18.162Z,101619.34
2023-02-11T16:31:48.653Z,101620.03
2023-02-11T16:34:23.921Z,101615.22
2023-02-11T16:36:52.853Z,101611.44
2023-02-11T16:39:22.388Z,101617.69
2023-02-11T16:41:51.759Z,101610.13
2023-02-11T16:44:19.683Z,101614.66
2023-02-11T16:46:47.044Z,101618.88
2023-02-11T16:49:21.123Z,101612.25
2023-02-11T16:51:52.609Z,101611.66
2023-02-11T16:54:20.536Z,101620.22
2023-02-11T16:56:47.781Z,101623.63
2023-02-11T16:59:15.296Z,101619.41
2023-02-11T17:01:44.338Z,101617.41
2023-02-11T17:04:21.011Z,101614.44
2023-02-11T17:06:48.489Z,101615.84
2023-02-11T17:09:30.122Z,101613.31
2023-02-11T17:11:58.126Z,101621.25
2023-02-11T17:14:25.353Z,101613.94
2023-02-11T17:16:52.642Z,101614.94
2023-02-11T17:19:21.389Z,101617.81
2023-02-11T17:21:52.492Z,101615.16
2023-02-11T17:24:22.096Z,101621.16
2023-02-11T17:26:50.079Z,101626.59
2023-02-11T17:29:23.149Z,101621.03
2023-02-11T17:31:52.370Z,101632.97
2023-02-11T17:34:21.744Z,101639.25
2023-02-11T17:36:49.725Z,101644.00
2023-02-11T17:39:17.031Z,101639.91
2023-02-11T17:41:44.186Z,101642.97
2023-02-11T17:44:16.317Z,101641.28
2023-02-11T17:46:44.063Z,101642.69
2023-02-11T17:49:12.302Z,101638.38
2023-02-11T17:51:40.601Z,101632.28
2023-02-11T17:54:16.514Z,101635.34
2023-02-11T17:56:44.537Z,101638.81
2023-02-11T17:59:13.832Z,101633.91
2023-02-11T18:01:42.820Z,101637.75
2023-02-11T18:04:17.072Z,101637.00
2023-02-11T18:06:45.860Z,101639.00
2023-02-11T18:09:13.541Z,101636.25
2023-02-11T18:11:41.507Z,101637.19
2023-02-11T18:14:10.053Z,101630.03
2023-02-11T18:16:39.775Z,101634.59
2023-02-11T18:19:07.836Z,101625.91
2023-02-11T18:21:35.694Z,101630.91
2023-02-11T18:24:06.726Z,101623.44
2023-02-11T18:26:35.679Z,101632.66
2023-02-11T18:29:03.851Z,101626.84
2023-02-11T18:31:31.442Z,101624.16
2023-02-11T18:33:58.782Z,101623.91
2023-02-11T18:36:25.992Z,101627.50
2023-02-11T18:38:54.193Z,101628.41
2023-02-11T18:41:21.816Z,101620.72
2023-02-11T18:43:49.200Z,101628.19
2023-02-11T18:46:16.942Z,101638.69
2023-02-11T18:48:47.100Z,101624.13
2023-02-11T18:51:21.173Z,101630.00
2023-02-11T18:53:48.353Z,101639.13
2023-02-11T18:56:21.150Z,101636.16
2023-02-11T18:58:49.367Z,101639.44
2023-02-11T19:01:25.907Z,101639.31
2023-02-11T19:03:59.030Z,101640.59
2023-02-11T19:06:30.324Z,101641.38
2023-02-11T19:09:02.767Z,101641.91
2023-02-11T19:11:47.880Z,101628.97
2023-02-11T19:14:24.191Z,101630.75
2023-02-11T19:16:56.339Z,101638.03
2023-02-11T19:19:28.104Z,101638.91
2023-02-11T19:21:57.665Z,101635.44
2023-02-11T19:24:26.822Z,101644.19
2023-02-11T19:27:00.144Z,101649.41
2023-02-11T19:29:29.265Z,101653.25
2023-02-11T19:31:56.450Z,101651.47
2023-02-11T19:34:23.742Z,101650.72
2023-02-11T19:36:51.465Z,101659.16
2023-02-11T19:39:18.639Z,101651.47
2023-02-11T19:41:46.037Z,101660.81
2023-02-11T19:44:14.653Z,101647.56
2023-02-11T19:46:42.274Z,101638.91
2023-02-11T19:49:15.568Z,101636.31
2023-02-11T19:51:42.833Z,101629.56
2023-02-11T19:54:10.064Z,101626.50
2023-02-11T19:56:37.958Z,101619.22
2023-02-11T19:59:08.773Z,101635.16
2023-02-11T20:01:36.902Z,101640.44
2023-02-11T20:04:04.548Z,101647.59
2023-02-11T20:06:34.396Z,101646.22
2023-02-11T20:09:07.359Z,101641.75
2023-02-11T20:11:36.746Z,101635.84
2023-02-11T20:14:05.059Z,101638.41
2023-02-11T20:16:46.913Z,101642.56
2023-02-11T20:19:21.936Z,101638.09
2023-02-11T20:21:53.595Z,101644.53
2023-02-11T20:24:22.437Z,101646.59
2023-02-11T20:26:55.078Z,101647.53
2023-02-11T20:29:24.813Z,101646.09
2023-02-11T20:31:52.662Z,101645.06
2023-02-11T20:34:21.887Z,101648.75
2023-02-11T20:36:52.086Z,101645.22
2023-02-11T20:39:22.185Z,101653.22
2023-02-11T20:41:50.981Z,101654.34
2023-02-11T20:44:18.117Z,101652.63
2023-02-11T20:46:48.438Z,101652.09
2023-02-11T20:49:23.629Z,101657.09
2023-02-11T20:51:53.498Z,101657.63
2023-02-11T20:54:22.911Z,101649.94
2023-02-11T20:56:53.873Z,101656.56
2023-02-11T20:59:21.720Z,101665.81
2023-02-11T21:01:53.988Z,101662.78
2023-02-11T21:04:30.298Z,101655.44
2023-02-11T21:07:01.795Z,101662.88
2023-02-11T21:09:33.136Z,101657.56
2023-02-11T21:12:01.033Z,101657.41
2023-02-11T21:14:28.897Z,101653.94
2023-02-11T21:16:56.257Z,101656.50
2023-02-11T21:19:23.664Z,101658.19
2023-02-11T21:21:51.122Z,101664.41
2023-02-11T21:24:18.514Z,101663.25
2023-02-11T21:26:45.728Z,101655.22
2023-02-11T21:29:12.881Z,101657.50
2023-02-11T21:31:40.376Z,101654.53
2023-02-11T21:34:08.008Z,101656.03
2023-02-11T21:36:35.278Z,101659.97
2023-02-11T21:39:03.936Z,101656.63
2023-02-11T21:41:31.421Z,101662.34
2023-02-11T21:43:58.953Z,101656.13
2023-02-11T21:46:27.053Z,101652.09
2023-02-11T21:48:54.257Z,101650.56
2023-02-11T21:51:25.910Z,101651.28
2023-02-11T21:53:57.313Z,101649.28
2023-02-11T21:56:27.954Z,101647.69
2023-02-11T21:58:58.482Z,101652.66
2023-02-11T22:01:31.341Z,101649.56
2023-02-11T22:03:59.302Z,101648.81
2023-02-11T22:06:31.977Z,101648.84
2023-02-11T22:09:06.388Z,101647.72
2023-02-11T22:11:33.625Z,101665.75
2023-02-11T22:14:00.988Z,101666.91
2023-02-11T22:16:28.957Z,101665.41
2023-02-11T22:18:59.636Z,101663.38
2023-02-11T22:21:27.018Z,101663.59
2023-02-11T22:23:55.868Z,101649.59
2023-02-11T22:26:26.631Z,101650.69
2023-02-11T22:28:54.946Z,101656.06
2023-02-11T22:31:33.286Z,101646.31
2023-02-11T22:34:04.406Z,101656.63
2023-02-11T22:36:37.156Z,101647.81
2023-02-11T22:39:11.396Z,101646.34
2023-02-11T22:41:40.338Z,101643.78
2023-02-11T22:44:08.598Z,101651.91
2023-02-11T22:46:36.492Z,101651.84
2023-02-11T22:49:05.676Z,101653.16
2023-02-11T22:51:33.462Z,101649.31
2023-02-11T22:54:05.593Z,101640.16
2023-02-11T22:56:35.038Z,101642.53
2023-02-11T22:59:10.233Z,101651.56
2023-02-11T23:01:37.864Z,101651.38
2023-02-11T23:04:08.465Z,101643.84
2023-02-11T23:06:35.806Z,101637.59
2023-02-11T23:09:06.435Z,101641.09
2023-02-11T23:11:34.697Z,101650.28
2023-02-11T23:14:02.977Z,101648.81
2023-02-11T23:16:34.551Z,101643.84
2023-02-11T23:19:06.869Z,101640.72
2023-02-11T23:21:38.020Z,101644.94
2023-02-11T23:24:12.613Z,101647.16
2023-02-11T23:26:42.383Z,101653.94
2023-02-11T23:29:10.849Z,101640.53
2023-02-11T23:31:43.313Z,101637.22
2023-02-11T23:34:11.422Z,101637.59
2023-02-11T23:36:38.942Z,101629.50
2023-02-11T23:39:06.265Z,101634.66
2023-02-11T23:41:33.514Z,101634.28
2023-02-11T23:44:00.747Z,101632.81
2023-02-11T23:46:28.608Z,101626.56
2023-02-11T23:48:56.386Z,101626.75
2023-02-11T23:51:24.120Z,101625.13
2023-02-11T23:53:52.627Z,101626.56
2023-02-11T23:56:24.940Z,101623.81
2023-02-11T23:58:57.161Z,101614.44
